Wetterdaten: Juli 2009
Datum Temp. A. Feuchte A. Luftdruck Regen Wind Richtung Taupunkt Windchill Windben
01.07.2009 23,0 C 71 % 1018 hPa 0,0 l/m 2,2 km/h O 17,2 C 22,9 C 3,2 km/h
02.07.2009 22,3 C 75 % 1015 hPa 0,0 l/m 2,4 km/h NO 17,4 C 22,1 C 3,4 km/h
03.07.2009 22,3 C 74 % 1012 hPa 1,6 l/m 1,4 km/h W-NW 17,1 C 22,3 C 2,4 km/h
04.07.2009 21,8 C 80 % 1010 hPa 3,1 l/m 0,9 km/h N 18,1 C 21,8 C 1,9 km/h
05.07.2009 23,9 C 64 % 1008 hPa 0,0 l/m 3,4 km/h W-NW 16,1 C 23,9 C 4,4 km/h
06.07.2009 19,6 C 82 % 1008 hPa 6,7 l/m 2,4 km/h N-NO 16,4 C 19,6 C 3,4 km/h
07.07.2009 17,7 C 79 % 1008 hPa 0,5 l/m 6,4 km/h W-NW 13,9 C 17,4 C 7,3 km/h
08.07.2009 16,1 C 73 % 1010 hPa 2,1 l/m 10,9 km/h W-NW 11,1 C 14,6 C 19,1 km/h
09.07.2009 15,3 C 78 % 1013 hPa 3,1 l/m 2,2 km/h W-NW 11,5 C 15,0 C 3,2 km/h
10.07.2009 16,8 C 60 % 1014 hPa 0,0 l/m 8,8 km/h W-NW 8,5 C 15,7 C 9,8 km/h
11.07.2009 17,6 C 58 % 1015 hPa 0,0 l/m 4,6 km/h W-NW 9,1 C 17,0 C 6,7 km/h
12.07.2009 19,4 C 69 % 1012 hPa 0,5 l/m 6,2 km/h W-NW 13,4 C 19,2 C 7,2 km/h
13.07.2009 22,4 C 70 % 1013 hPa 0,0 l/m 1,9 km/h W-NW 16,2 C 22,4 C 7,7 km/h
14.07.2009 22,6 C 72 % 1013 hPa 5,2 l/m 4,3 km/h W-NW 17,0 C 22,3 C 5,3 km/h
15.07.2009 20,5 C 84 % 1018 hPa 7,8 l/m 4,9 km/h NO 17,7 C 19,6 C 7,7 km/h
16.07.2009 23,9 C 69 % 1019 hPa 2,6 l/m 0,3 km/h N-NO 17,6 C 23,9 C 1,4 km/h
17.07.2009 20,9 C 79 % 1009 hPa 39,4 l/m 2,6 km/h W-NW 16,9 C 20,6 C 3,6 km/h
18.07.2009 14,1 C 85 % 1012 hPa 6,2 l/m 0,9 km/h W-NW 11,7 C 14,1 C 1,9 km/h
19.07.2009 16,0 C 80 % 1016 hPa 4,1 l/m 5,8 km/h W-NW 12,4 C 14,8 C 6,8 km/h
20.07.2009 17,9 C 70 % 1017 hPa 0,5 l/m 4,3 km/h W-NW 12,1 C 17,2 C 10,2 km/h
21.07.2009 23,0 C 66 % 1013 hPa 0,0 l/m 7,0 km/h O-NO 15,7 C 22,8 C 8,0 km/h
22.07.2009 23,5 C 64 % 1009 hPa 0,0 l/m 16,2 km/h NO 16,0 C 21,4 C 20,7 km/h
23.07.2009 21,0 C 76 % 1008 hPa 9,3 l/m 6,9 km/h NO 16,2 C 20,3 C 7,9 km/h
24.07.2009 20,5 C 63 % 1014 hPa 0,0 l/m 3,8 km/h W-NW 12,7 C 20,2 C 4,8 km/h
25.07.2009 17,8 C 69 % 1021 hPa 1,6 l/m 3,4 km/h W-NW 11,8 C 17,4 C 6,7 km/h
26.07.2009 17,7 C 69 % 1020 hPa 0,0 l/m 0,0 km/h N-NO 11,7 C 17,7 C 1,0 km/h
27.07.2009 22,6 C 58 % 1013 hPa 0,0 l/m 2,6 km/h NO 13,0 C 22,5 C 3,6 km/h
28.07.2009 18,9 C 67 % 1020 hPa 4,7 l/m 3,3 km/h W-NW 12,4 C 18,7 C 4,3 km/h
29.07.2009 20,0 C 64 % 1018 hPa 0,0 l/m 2,8 km/h NO 11,9 C 20,0 C 3,8 km/h
Min-Datum 20.07.09 27.07.09 23.07.09 17 Tage 01.07.09 - 11.07.09 10.07.09 01.07.09
Min-Zeit 04:05 15:15 10:05 - 00:00 - 16:30 07:35 00:00
Minimum 10,8 C 35 % 1004 hPa - 0,0 km/h - 6,4 C 7,5 C 1,0 km/h
Max-Datum 27.07.09 14.07.09 25.07.09 17.07.09 27.07.09 - 04.07.09 27.07.09 08.07.09
Max-Zeit 16:10 05:55 21:50 21:45 10:35 - 16:30 16:10 13:45
Maximum 31,2 C 92 % 1023 hPa 39,4 l/m 45,8 km/h
NO
- 20,4 C 31,1 C 74,9 km/h
W-NW
Durchschnitt 20,0 C 71 % 1014 hPa #98,9 l/m 4,2 km/h W-NW 14,2 C 19,6 C 6,1 km/h

Durchschnitt Minimum Temp.14,7 C
Durchschnitt Maximum Temp.25,5 C